Аэропорт: Актобе. Актобе

ICAO: UATT

METAR:
2024-07-24 15:00:00
UATT 241500Z 06004MPS 9999 -SHRA FEW050CB 24/18 Q1000 NOSIG RMK QFE730/0974
TAF:
2024-07-24 11:01:00
TAF UATT 241101Z 2412/2512 18005MPS 3100 -SHRA BKN015CB TX24/2412Z TN18/2500Z 
  TEMPO 2412/2419 06010MPS 2000 TSRA 
  TEMPO 2419/2423 12005MPS 
  TEMPO 2504/2508 VRB12MPS -TSRA 
  BECMG 2508/2509 30005MPS 
  TEMPO 2508/2512 28012MPS -TSRA